sensor_id;sensor_type;location;lat;lon;timestamp;P1;durP1;ratioP1;P2;durP2;ratioP2
15254;SDS011;7730;49.610;11.136;2023-09-18T00:00:48;8.20;;;3.95;;
15254;SDS011;7730;49.610;11.136;2023-09-18T00:03:15;6.68;;;3.53;;
15254;SDS011;7730;49.610;11.136;2023-09-18T00:05:45;7.00;;;3.60;;
15254;SDS011;7730;49.610;11.136;2023-09-18T00:08:14;7.40;;;3.70;;
15254;SDS011;7730;49.610;11.136;2023-09-18T00:10:41;6.40;;;3.60;;
15254;SDS011;7730;49.610;11.136;2023-09-18T00:13:09;7.72;;;3.75;;
15254;SDS011;7730;49.610;11.136;2023-09-18T00:15:36;7.78;;;3.60;;
15254;SDS011;7730;49.610;11.136;2023-09-18T00:18:03;7.60;;;3.40;;
15254;SDS011;7730;49.610;11.136;2023-09-18T00:20:30;7.43;;;3.80;;
15254;SDS011;7730;49.610;11.136;2023-09-18T00:22:57;6.97;;;3.60;;
15254;SDS011;7730;49.610;11.136;2023-09-18T00:25:26;7.78;;;3.50;;
15254;SDS011;7730;49.610;11.136;2023-09-18T00:27:53;5.55;;;3.42;;
15254;SDS011;7730;49.610;11.136;2023-09-18T00:30:20;6.35;;;3.40;;
15254;SDS011;7730;49.610;11.136;2023-09-18T00:32:47;7.07;;;3.50;;
15254;SDS011;7730;49.610;11.136;2023-09-18T00:35:15;7.18;;;3.60;;
15254;SDS011;7730;49.610;11.136;2023-09-18T00:37:42;5.32;;;3.40;;
15254;SDS011;7730;49.610;11.136;2023-09-18T00:40:09;6.85;;;3.30;;
15254;SDS011;7730;49.610;11.136;2023-09-18T00:42:38;5.35;;;3.10;;
15254;SDS011;7730;49.610;11.136;2023-09-18T00:45:05;6.25;;;3.28;;
15254;SDS011;7730;49.610;11.136;2023-09-18T00:47:33;7.78;;;3.60;;
15254;SDS011;7730;49.610;11.136;2023-09-18T00:50:01;7.22;;;3.50;;
15254;SDS011;7730;49.610;11.136;2023-09-18T00:52:28;6.97;;;3.30;;
15254;SDS011;7730;49.610;11.136;2023-09-18T00:54:55;5.78;;;3.20;;
15254;SDS011;7730;49.610;11.136;2023-09-18T00:57:22;5.72;;;3.13;;
15254;SDS011;7730;49.610;11.136;2023-09-18T00:59:51;4.90;;;2.90;;
15254;SDS011;7730;49.610;11.136;2023-09-18T01:02:18;5.40;;;2.90;;
15254;SDS011;7730;49.610;11.136;2023-09-18T01:04:45;7.10;;;3.20;;
15254;SDS011;7730;49.610;11.136;2023-09-18T01:07:13;6.30;;;3.28;;
15254;SDS011;7730;49.610;11.136;2023-09-18T01:09:40;4.95;;;3.00;;
15254;SDS011;7730;49.610;11.136;2023-09-18T01:12:11;4.57;;;3.00;;
15254;SDS011;7730;49.610;11.136;2023-09-18T01:14:42;5.38;;;3.20;;
15254;SDS011;7730;49.610;11.136;2023-09-18T01:17:12;5.47;;;3.10;;
15254;SDS011;7730;49.610;11.136;2023-09-18T01:19:41;5.53;;;3.10;;
15254;SDS011;7730;49.610;11.136;2023-09-18T01:22:12;4.88;;;3.20;;
15254;SDS011;7730;49.610;11.136;2023-09-18T01:24:40;7.28;;;2.85;;
15254;SDS011;7730;49.610;11.136;2023-09-18T01:27:08;7.15;;;3.30;;
15254;SDS011;7730;49.610;11.136;2023-09-18T01:29:35;4.97;;;3.13;;
15254;SDS011;7730;49.610;11.136;2023-09-18T01:32:03;4.88;;;3.08;;
15254;SDS011;7730;49.610;11.136;2023-09-18T01:34:31;6.95;;;3.20;;
15254;SDS011;7730;49.610;11.136;2023-09-18T01:37:01;6.57;;;3.30;;
15254;SDS011;7730;49.610;11.136;2023-09-18T01:39:29;7.05;;;3.08;;
15254;SDS011;7730;49.610;11.136;2023-09-18T01:42:01;5.75;;;3.10;;
15254;SDS011;7730;49.610;11.136;2023-09-18T01:44:29;5.15;;;3.08;;
15254;SDS011;7730;49.610;11.136;2023-09-18T01:46:57;6.93;;;3.25;;
15254;SDS011;7730;49.610;11.136;2023-09-18T01:49:28;5.45;;;3.10;;
15254;SDS011;7730;49.610;11.136;2023-09-18T01:51:55;5.30;;;3.20;;
15254;SDS011;7730;49.610;11.136;2023-09-18T01:54:22;4.93;;;3.40;;
15254;SDS011;7730;49.610;11.136;2023-09-18T01:56:49;5.95;;;3.25;;
15254;SDS011;7730;49.610;11.136;2023-09-18T01:59:18;6.22;;;3.45;;
15254;SDS011;7730;49.610;11.136;2023-09-18T02:01:45;5.50;;;3.33;;
15254;SDS011;7730;49.610;11.136;2023-09-18T02:04:12;5.07;;;3.10;;
15254;SDS011;7730;49.610;11.136;2023-09-18T02:06:39;7.55;;;3.78;;
15254;SDS011;7730;49.610;11.136;2023-09-18T02:09:06;5.47;;;3.33;;
15254;SDS011;7730;49.610;11.136;2023-09-18T02:11:34;5.60;;;3.20;;
15254;SDS011;7730;49.610;11.136;2023-09-18T02:14:02;6.22;;;3.38;;
15254;SDS011;7730;49.610;11.136;2023-09-18T02:16:32;5.97;;;3.42;;
15254;SDS011;7730;49.610;11.136;2023-09-18T02:18:59;7.97;;;3.58;;
15254;SDS011;7730;49.610;11.136;2023-09-18T02:21:26;5.63;;;3.35;;
15254;SDS011;7730;49.610;11.136;2023-09-18T02:23:53;6.18;;;3.40;;
15254;SDS011;7730;49.610;11.136;2023-09-18T02:26:22;5.82;;;3.38;;
15254;SDS011;7730;49.610;11.136;2023-09-18T02:28:51;4.88;;;3.05;;
15254;SDS011;7730;49.610;11.136;2023-09-18T02:31:18;6.25;;;3.47;;
15254;SDS011;7730;49.610;11.136;2023-09-18T02:33:46;5.53;;;3.50;;
15254;SDS011;7730;49.610;11.136;2023-09-18T02:36:14;6.68;;;3.35;;
15254;SDS011;7730;49.610;11.136;2023-09-18T02:38:41;7.45;;;3.60;;
15254;SDS011;7730;49.610;11.136;2023-09-18T02:41:08;8.43;;;3.60;;
15254;SDS011;7730;49.610;11.136;2023-09-18T02:43:35;7.28;;;3.88;;
15254;SDS011;7730;49.610;11.136;2023-09-18T02:46:02;6.78;;;3.78;;
15254;SDS011;7730;49.610;11.136;2023-09-18T02:48:30;8.07;;;3.80;;
15254;SDS011;7730;49.610;11.136;2023-09-18T02:50:58;6.72;;;3.88;;
15254;SDS011;7730;49.610;11.136;2023-09-18T02:53:26;7.85;;;4.10;;
15254;SDS011;7730;49.610;11.136;2023-09-18T02:55:53;8.93;;;4.40;;
15254;SDS011;7730;49.610;11.136;2023-09-18T02:58:20;8.48;;;4.50;;
15254;SDS011;7730;49.610;11.136;2023-09-18T03:00:48;8.10;;;4.22;;
15254;SDS011;7730;49.610;11.136;2023-09-18T03:03:15;8.82;;;4.35;;
15254;SDS011;7730;49.610;11.136;2023-09-18T03:05:43;8.93;;;4.25;;
15254;SDS011;7730;49.610;11.136;2023-09-18T03:08:12;8.27;;;4.40;;
15254;SDS011;7730;49.610;11.136;2023-09-18T03:10:40;9.95;;;5.10;;
15254;SDS011;7730;49.610;11.136;2023-09-18T03:13:08;9.60;;;5.25;;
15254;SDS011;7730;49.610;11.136;2023-09-18T03:15:35;11.88;;;5.95;;
15254;SDS011;7730;49.610;11.136;2023-09-18T03:18:05;11.27;;;6.15;;
15254;SDS011;7730;49.610;11.136;2023-09-18T03:20:35;12.32;;;6.40;;
15254;SDS011;7730;49.610;11.136;2023-09-18T03:23:02;11.73;;;6.32;;
15254;SDS011;7730;49.610;11.136;2023-09-18T03:25:30;10.23;;;5.43;;
15254;SDS011;7730;49.610;11.136;2023-09-18T03:27:57;7.75;;;3.90;;
15254;SDS011;7730;49.610;11.136;2023-09-18T03:30:25;8.10;;;3.90;;
15254;SDS011;7730;49.610;11.136;2023-09-18T03:32:52;7.53;;;4.00;;
15254;SDS011;7730;49.610;11.136;2023-09-18T03:35:20;6.22;;;3.80;;
15254;SDS011;7730;49.610;11.136;2023-09-18T03:37:48;6.53;;;3.60;;
15254;SDS011;7730;49.610;11.136;2023-09-18T03:40:17;7.95;;;3.70;;
15254;SDS011;7730;49.610;11.136;2023-09-18T03:42:45;7.97;;;3.60;;
15254;SDS011;7730;49.610;11.136;2023-09-18T03:45:12;6.13;;;3.65;;
15254;SDS011;7730;49.610;11.136;2023-09-18T03:47:40;8.13;;;3.78;;
15254;SDS011;7730;49.610;11.136;2023-09-18T03:50:08;6.85;;;3.83;;
15254;SDS011;7730;49.610;11.136;2023-09-18T03:52:35;8.45;;;4.18;;
15254;SDS011;7730;49.610;11.136;2023-09-18T03:55:03;11.43;;;4.90;;
15254;SDS011;7730;49.610;11.136;2023-09-18T03:57:31;11.90;;;5.93;;
15254;SDS011;7730;49.610;11.136;2023-09-18T03:59:59;12.70;;;5.40;;
15254;SDS011;7730;49.610;11.136;2023-09-18T04:02:26;8.70;;;4.30;;
15254;SDS011;7730;49.610;11.136;2023-09-18T04:04:53;9.57;;;4.40;;
15254;SDS011;7730;49.610;11.136;2023-09-18T04:07:20;7.70;;;4.25;;
15254;SDS011;7730;49.610;11.136;2023-09-18T04:09:47;8.50;;;3.95;;
15254;SDS011;7730;49.610;11.136;2023-09-18T04:12:14;7.63;;;4.10;;
15254;SDS011;7730;49.610;11.136;2023-09-18T04:14:41;10.98;;;4.57;;
15254;SDS011;7730;49.610;11.136;2023-09-18T04:17:10;8.38;;;4.35;;
15254;SDS011;7730;49.610;11.136;2023-09-18T04:19:38;8.60;;;4.60;;
15254;SDS011;7730;49.610;11.136;2023-09-18T04:22:05;8.55;;;4.32;;
15254;SDS011;7730;49.610;11.136;2023-09-18T04:24:33;11.38;;;5.40;;
15254;SDS011;7730;49.610;11.136;2023-09-18T04:27:00;12.10;;;6.40;;
15254;SDS011;7730;49.610;11.136;2023-09-18T04:29:27;13.05;;;6.32;;
15254;SDS011;7730;49.610;11.136;2023-09-18T04:31:54;8.52;;;4.10;;
15254;SDS011;7730;49.610;11.136;2023-09-18T04:34:24;8.18;;;4.40;;
15254;SDS011;7730;49.610;11.136;2023-09-18T04:36:51;10.02;;;5.20;;
15254;SDS011;7730;49.610;11.136;2023-09-18T04:39:18;10.38;;;4.13;;
15254;SDS011;7730;49.610;11.136;2023-09-18T04:41:46;8.07;;;3.95;;
15254;SDS011;7730;49.610;11.136;2023-09-18T04:44:13;8.25;;;3.88;;
15254;SDS011;7730;49.610;11.136;2023-09-18T04:46:40;11.27;;;4.63;;
15254;SDS011;7730;49.610;11.136;2023-09-18T04:49:08;9.07;;;4.28;;
15254;SDS011;7730;49.610;11.136;2023-09-18T04:51:37;11.77;;;5.43;;
15254;SDS011;7730;49.610;11.136;2023-09-18T04:54:06;11.25;;;5.55;;
15254;SDS011;7730;49.610;11.136;2023-09-18T04:56:33;12.93;;;5.70;;
15254;SDS011;7730;49.610;11.136;2023-09-18T04:59:00;11.45;;;5.70;;
15254;SDS011;7730;49.610;11.136;2023-09-18T05:01:28;9.02;;;4.43;;
15254;SDS011;7730;49.610;11.136;2023-09-18T05:03:56;11.07;;;4.50;;
15254;SDS011;7730;49.610;11.136;2023-09-18T05:06:23;6.35;;;3.92;;
15254;SDS011;7730;49.610;11.136;2023-09-18T05:08:51;7.25;;;3.90;;
15254;SDS011;7730;49.610;11.136;2023-09-18T05:11:19;8.23;;;3.95;;
15254;SDS011;7730;49.610;11.136;2023-09-18T05:13:48;7.57;;;4.10;;
15254;SDS011;7730;49.610;11.136;2023-09-18T05:16:15;8.32;;;4.70;;
15254;SDS011;7730;49.610;11.136;2023-09-18T05:18:42;11.73;;;4.47;;
15254;SDS011;7730;49.610;11.136;2023-09-18T05:21:09;9.00;;;4.50;;
15254;SDS011;7730;49.610;11.136;2023-09-18T05:23:36;9.50;;;4.32;;
15254;SDS011;7730;49.610;11.136;2023-09-18T05:26:05;9.93;;;4.53;;
15254;SDS011;7730;49.610;11.136;2023-09-18T05:28:32;8.55;;;4.20;;
15254;SDS011;7730;49.610;11.136;2023-09-18T05:30:59;10.55;;;4.50;;
15254;SDS011;7730;49.610;11.136;2023-09-18T05:33:26;8.75;;;4.47;;
15254;SDS011;7730;49.610;11.136;2023-09-18T05:35:53;13.85;;;5.15;;
15254;SDS011;7730;49.610;11.136;2023-09-18T05:38:21;10.13;;;4.60;;
15254;SDS011;7730;49.610;11.136;2023-09-18T05:40:48;8.35;;;4.20;;
15254;SDS011;7730;49.610;11.136;2023-09-18T05:43:16;8.50;;;4.32;;
15254;SDS011;7730;49.610;11.136;2023-09-18T05:45:43;9.98;;;4.43;;
15254;SDS011;7730;49.610;11.136;2023-09-18T05:48:10;9.93;;;4.70;;
15254;SDS011;7730;49.610;11.136;2023-09-18T05:50:38;8.68;;;4.22;;
15254;SDS011;7730;49.610;11.136;2023-09-18T05:53:06;8.68;;;4.70;;
15254;SDS011;7730;49.610;11.136;2023-09-18T05:55:34;8.13;;;4.20;;
15254;SDS011;7730;49.610;11.136;2023-09-18T05:58:01;7.72;;;4.30;;
15254;SDS011;7730;49.610;11.136;2023-09-18T06:00:30;8.82;;;4.22;;
15254;SDS011;7730;49.610;11.136;2023-09-18T06:02:57;8.43;;;4.10;;
15254;SDS011;7730;49.610;11.136;2023-09-18T06:05:26;10.68;;;4.60;;
15254;SDS011;7730;49.610;11.136;2023-09-18T06:07:56;9.45;;;4.70;;
15254;SDS011;7730;49.610;11.136;2023-09-18T06:10:23;11.80;;;5.15;;
15254;SDS011;7730;49.610;11.136;2023-09-18T06:12:50;11.35;;;5.00;;
15254;SDS011;7730;49.610;11.136;2023-09-18T06:15:17;10.20;;;5.03;;
15254;SDS011;7730;49.610;11.136;2023-09-18T06:17:45;10.93;;;4.85;;
15254;SDS011;7730;49.610;11.136;2023-09-18T06:20:12;8.88;;;4.38;;
15254;SDS011;7730;49.610;11.136;2023-09-18T06:22:41;13.43;;;4.68;;
15254;SDS011;7730;49.610;11.136;2023-09-18T06:25:08;9.60;;;5.20;;
15254;SDS011;7730;49.610;11.136;2023-09-18T06:27:36;9.80;;;4.63;;
15254;SDS011;7730;49.610;11.136;2023-09-18T06:30:03;10.45;;;5.47;;
15254;SDS011;7730;49.610;11.136;2023-09-18T06:32:30;9.60;;;4.95;;
15254;SDS011;7730;49.610;11.136;2023-09-18T06:34:59;8.48;;;4.50;;
15254;SDS011;7730;49.610;11.136;2023-09-18T06:37:26;7.97;;;4.40;;
15254;SDS011;7730;49.610;11.136;2023-09-18T06:39:53;10.30;;;4.43;;
15254;SDS011;7730;49.610;11.136;2023-09-18T06:42:21;10.52;;;4.80;;
15254;SDS011;7730;49.610;11.136;2023-09-18T06:44:48;8.30;;;4.30;;
15254;SDS011;7730;49.610;11.136;2023-09-18T06:47:15;9.63;;;4.15;;
15254;SDS011;7730;49.610;11.136;2023-09-18T06:49:42;9.82;;;3.95;;
15254;SDS011;7730;49.610;11.136;2023-09-18T06:52:10;8.32;;;4.10;;
15254;SDS011;7730;49.610;11.136;2023-09-18T06:54:38;7.93;;;4.00;;
15254;SDS011;7730;49.610;11.136;2023-09-18T06:57:06;7.57;;;4.10;;
15254;SDS011;7730;49.610;11.136;2023-09-18T06:59:33;7.82;;;4.00;;
15254;SDS011;7730;49.610;11.136;2023-09-18T07:02:00;7.85;;;3.90;;
15254;SDS011;7730;49.610;11.136;2023-09-18T07:04:27;8.07;;;4.00;;
15254;SDS011;7730;49.610;11.136;2023-09-18T07:06:54;8.73;;;4.10;;
15254;SDS011;7730;49.610;11.136;2023-09-18T07:09:23;9.55;;;4.03;;
15254;SDS011;7730;49.610;11.136;2023-09-18T07:11:51;8.13;;;4.07;;
15254;SDS011;7730;49.610;11.136;2023-09-18T07:14:18;8.52;;;4.13;;
15254;SDS011;7730;49.610;11.136;2023-09-18T07:16:45;8.80;;;4.25;;
15254;SDS011;7730;49.610;11.136;2023-09-18T07:19:12;8.13;;;3.70;;
15254;SDS011;7730;49.610;11.136;2023-09-18T07:21:41;8.15;;;3.88;;
15254;SDS011;7730;49.610;11.136;2023-09-18T07:24:08;8.07;;;4.00;;
15254;SDS011;7730;49.610;11.136;2023-09-18T07:26:42;8.80;;;4.30;;
15254;SDS011;7730;49.610;11.136;2023-09-18T07:29:09;8.32;;;4.20;;
15254;SDS011;7730;49.610;11.136;2023-09-18T07:31:36;8.10;;;4.10;;
15254;SDS011;7730;49.610;11.136;2023-09-18T07:34:03;8.85;;;4.30;;
15254;SDS011;7730;49.610;11.136;2023-09-18T07:36:30;8.43;;;4.20;;
15254;SDS011;7730;49.610;11.136;2023-09-18T07:38:57;8.65;;;3.90;;
15254;SDS011;7730;49.610;11.136;2023-09-18T07:41:24;6.82;;;3.85;;
15254;SDS011;7730;49.610;11.136;2023-09-18T07:43:53;8.23;;;3.92;;
15254;SDS011;7730;49.610;11.136;2023-09-18T07:46:20;8.50;;;4.25;;
15254;SDS011;7730;49.610;11.136;2023-09-18T07:48:47;7.97;;;4.07;;
15254;SDS011;7730;49.610;11.136;2023-09-18T07:51:14;8.75;;;4.00;;
15254;SDS011;7730;49.610;11.136;2023-09-18T07:53:41;9.38;;;4.40;;
15254;SDS011;7730;49.610;11.136;2023-09-18T07:56:08;7.55;;;4.10;;
15254;SDS011;7730;49.610;11.136;2023-09-18T07:58:35;9.30;;;4.25;;
15254;SDS011;7730;49.610;11.136;2023-09-18T08:01:05;8.27;;;4.00;;
15254;SDS011;7730;49.610;11.136;2023-09-18T08:03:34;8.05;;;4.30;;
15254;SDS011;7730;49.610;11.136;2023-09-18T08:06:01;11.43;;;4.30;;
15254;SDS011;7730;49.610;11.136;2023-09-18T08:08:29;8.85;;;4.28;;
15254;SDS011;7730;49.610;11.136;2023-09-18T08:10:58;8.70;;;4.15;;
15254;SDS011;7730;49.610;11.136;2023-09-18T08:13:25;9.10;;;4.28;;
15254;SDS011;7730;49.610;11.136;2023-09-18T08:15:52;7.88;;;3.80;;
15254;SDS011;7730;49.610;11.136;2023-09-18T08:18:21;8.45;;;4.20;;
15254;SDS011;7730;49.610;11.136;2023-09-18T08:20:51;8.60;;;4.03;;
15254;SDS011;7730;49.610;11.136;2023-09-18T08:23:18;9.63;;;3.95;;
15254;SDS011;7730;49.610;11.136;2023-09-18T08:25:45;10.13;;;4.30;;
15254;SDS011;7730;49.610;11.136;2023-09-18T08:28:13;9.55;;;3.90;;
15254;SDS011;7730;49.610;11.136;2023-09-18T08:30:41;7.47;;;3.95;;
15254;SDS011;7730;49.610;11.136;2023-09-18T08:33:12;8.90;;;4.40;;
15254;SDS011;7730;49.610;11.136;2023-09-18T08:35:40;7.20;;;3.88;;
15254;SDS011;7730;49.610;11.136;2023-09-18T08:38:07;8.07;;;4.00;;
15254;SDS011;7730;49.610;11.136;2023-09-18T08:40:34;9.85;;;4.18;;
15254;SDS011;7730;49.610;11.136;2023-09-18T08:43:01;10.90;;;4.15;;
15254;SDS011;7730;49.610;11.136;2023-09-18T08:45:31;8.32;;;3.92;;
15254;SDS011;7730;49.610;11.136;2023-09-18T08:48:00;10.00;;;4.10;;
15254;SDS011;7730;49.610;11.136;2023-09-18T08:50:28;9.52;;;3.92;;
15254;SDS011;7730;49.610;11.136;2023-09-18T08:52:56;8.77;;;3.75;;
15254;SDS011;7730;49.610;11.136;2023-09-18T08:55:24;8.88;;;4.00;;
15254;SDS011;7730;49.610;11.136;2023-09-18T08:57:51;9.68;;;3.90;;
15254;SDS011;7730;49.610;11.136;2023-09-18T09:00:19;9.45;;;3.95;;
15254;SDS011;7730;49.610;11.136;2023-09-18T09:02:46;8.65;;;3.83;;
15254;SDS011;7730;49.610;11.136;2023-09-18T09:05:16;9.90;;;3.75;;
15254;SDS011;7730;49.610;11.136;2023-09-18T09:07:43;10.90;;;3.83;;
15254;SDS011;7730;49.610;11.136;2023-09-18T09:10:12;10.93;;;3.60;;
15254;SDS011;7730;49.610;11.136;2023-09-18T09:12:49;10.52;;;3.70;;
15254;SDS011;7730;49.610;11.136;2023-09-18T09:15:18;8.13;;;3.20;;
15254;SDS011;7730;49.610;11.136;2023-09-18T09:17:45;12.40;;;4.10;;
15254;SDS011;7730;49.610;11.136;2023-09-18T09:20:13;11.20;;;3.83;;
15254;SDS011;7730;49.610;11.136;2023-09-18T09:22:41;11.55;;;3.50;;
15254;SDS011;7730;49.610;11.136;2023-09-18T09:25:25;10.15;;;3.60;;
15254;SDS011;7730;49.610;11.136;2023-09-18T09:27:53;8.68;;;3.25;;
15254;SDS011;7730;49.610;11.136;2023-09-18T09:30:21;10.50;;;3.45;;
15254;SDS011;7730;49.610;11.136;2023-09-18T09:32:48;10.25;;;3.10;;
15254;SDS011;7730;49.610;11.136;2023-09-18T09:35:20;10.02;;;3.38;;
15254;SDS011;7730;49.610;11.136;2023-09-18T09:37:47;14.60;;;3.70;;
15254;SDS011;7730;49.610;11.136;2023-09-18T09:40:15;9.82;;;3.20;;
15254;SDS011;7730;49.610;11.136;2023-09-18T09:42:44;10.52;;;3.20;;
15254;SDS011;7730;49.610;11.136;2023-09-18T09:45:13;11.18;;;3.50;;
15254;SDS011;7730;49.610;11.136;2023-09-18T09:47:40;10.32;;;3.30;;
15254;SDS011;7730;49.610;11.136;2023-09-18T09:50:09;9.68;;;3.10;;
15254;SDS011;7730;49.610;11.136;2023-09-18T09:52:36;8.98;;;2.85;;
15254;SDS011;7730;49.610;11.136;2023-09-18T09:55:17;8.40;;;2.80;;
15254;SDS011;7730;49.610;11.136;2023-09-18T09:57:50;10.85;;;3.22;;
15254;SDS011;7730;49.610;11.136;2023-09-18T10:00:17;11.50;;;3.15;;
15254;SDS011;7730;49.610;11.136;2023-09-18T10:02:57;11.02;;;3.25;;
15254;SDS011;7730;49.610;11.136;2023-09-18T10:05:26;10.88;;;3.10;;
15254;SDS011;7730;49.610;11.136;2023-09-18T10:07:54;9.30;;;3.13;;
15254;SDS011;7730;49.610;11.136;2023-09-18T10:10:23;11.10;;;3.15;;
15254;SDS011;7730;49.610;11.136;2023-09-18T10:12:52;9.45;;;2.97;;
15254;SDS011;7730;49.610;11.136;2023-09-18T10:15:20;8.00;;;2.95;;
15254;SDS011;7730;49.610;11.136;2023-09-18T10:17:48;8.48;;;3.00;;
15254;SDS011;7730;49.610;11.136;2023-09-18T10:20:17;8.95;;;3.08;;
15254;SDS011;7730;49.610;11.136;2023-09-18T10:22:46;10.40;;;3.22;;
15254;SDS011;7730;49.610;11.136;2023-09-18T10:25:16;8.98;;;2.90;;
15254;SDS011;7730;49.610;11.136;2023-09-18T10:27:45;11.68;;;3.17;;
15254;SDS011;7730;49.610;11.136;2023-09-18T10:30:15;7.88;;;2.70;;
15254;SDS011;7730;49.610;11.136;2023-09-18T10:32:44;12.05;;;2.85;;
15254;SDS011;7730;49.610;11.136;2023-09-18T10:35:13;13.57;;;3.20;;
15254;SDS011;7730;49.610;11.136;2023-09-18T10:37:40;12.30;;;2.90;;
15254;SDS011;7730;49.610;11.136;2023-09-18T10:40:11;8.15;;;2.70;;
15254;SDS011;7730;49.610;11.136;2023-09-18T10:42:38;10.63;;;2.70;;
15254;SDS011;7730;49.610;11.136;2023-09-18T10:45:06;10.85;;;2.92;;
15254;SDS011;7730;49.610;11.136;2023-09-18T10:47:37;9.35;;;2.72;;
15254;SDS011;7730;49.610;11.136;2023-09-18T10:50:05;11.15;;;2.60;;
15254;SDS011;7730;49.610;11.136;2023-09-18T10:52:33;11.23;;;2.63;;
15254;SDS011;7730;49.610;11.136;2023-09-18T10:55:01;11.02;;;2.33;;
15254;SDS011;7730;49.610;11.136;2023-09-18T10:57:32;8.77;;;2.50;;
15254;SDS011;7730;49.610;11.136;2023-09-18T11:00:00;7.15;;;2.20;;
15254;SDS011;7730;49.610;11.136;2023-09-18T11:02:39;7.18;;;2.10;;
15254;SDS011;7730;49.610;11.136;2023-09-18T11:05:07;4.47;;;1.83;;
15254;SDS011;7730;49.610;11.136;2023-09-18T11:07:34;7.53;;;1.80;;
15254;SDS011;7730;49.610;11.136;2023-09-18T11:10:09;6.22;;;1.77;;
15254;SDS011;7730;49.610;11.136;2023-09-18T11:12:51;11.52;;;2.60;;
15254;SDS011;7730;49.610;11.136;2023-09-18T11:15:25;7.72;;;2.00;;
15254;SDS011;7730;49.610;11.136;2023-09-18T11:17:59;11.77;;;3.10;;
15254;SDS011;7730;49.610;11.136;2023-09-18T11:20:28;9.98;;;2.63;;
15254;SDS011;7730;49.610;11.136;2023-09-18T11:22:56;8.95;;;2.08;;
15254;SDS011;7730;49.610;11.136;2023-09-18T11:25:29;11.93;;;2.60;;
15254;SDS011;7730;49.610;11.136;2023-09-18T11:27:59;7.00;;;1.95;;
15254;SDS011;7730;49.610;11.136;2023-09-18T11:30:26;6.00;;;2.03;;
15254;SDS011;7730;49.610;11.136;2023-09-18T11:32:54;7.72;;;2.40;;
15254;SDS011;7730;49.610;11.136;2023-09-18T11:35:23;9.20;;;2.10;;
15254;SDS011;7730;49.610;11.136;2023-09-18T11:38:02;8.45;;;2.00;;
15254;SDS011;7730;49.610;11.136;2023-09-18T11:40:30;15.73;;;2.30;;
15254;SDS011;7730;49.610;11.136;2023-09-18T11:43:18;8.15;;;1.90;;
15254;SDS011;7730;49.610;11.136;2023-09-18T11:45:48;8.23;;;1.77;;
15254;SDS011;7730;49.610;11.136;2023-09-18T11:48:16;5.97;;;1.70;;
15254;SDS011;7730;49.610;11.136;2023-09-18T11:50:45;6.60;;;1.58;;
15254;SDS011;7730;49.610;11.136;2023-09-18T11:53:14;4.22;;;1.80;;
15254;SDS011;7730;49.610;11.136;2023-09-18T11:55:43;8.88;;;1.70;;
15254;SDS011;7730;49.610;11.136;2023-09-18T11:58:10;6.30;;;1.75;;
15254;SDS011;7730;49.610;11.136;2023-09-18T12:00:38;6.55;;;1.67;;
15254;SDS011;7730;49.610;11.136;2023-09-18T12:03:14;7.57;;;1.58;;
15254;SDS011;7730;49.610;11.136;2023-09-18T12:05:51;7.05;;;1.52;;
15254;SDS011;7730;49.610;11.136;2023-09-18T12:08:18;6.43;;;1.63;;
15254;SDS011;7730;49.610;11.136;2023-09-18T12:10:47;8.90;;;1.80;;
15254;SDS011;7730;49.610;11.136;2023-09-18T12:13:15;4.88;;;1.70;;
15254;SDS011;7730;49.610;11.136;2023-09-18T12:15:42;7.93;;;1.75;;
15254;SDS011;7730;49.610;11.136;2023-09-18T12:18:09;5.55;;;1.70;;
15254;SDS011;7730;49.610;11.136;2023-09-18T12:20:37;6.57;;;1.80;;
15254;SDS011;7730;49.610;11.136;2023-09-18T12:23:05;4.72;;;1.70;;
15254;SDS011;7730;49.610;11.136;2023-09-18T12:25:34;4.38;;;1.77;;
15254;SDS011;7730;49.610;11.136;2023-09-18T12:28:01;7.15;;;1.88;;
15254;SDS011;7730;49.610;11.136;2023-09-18T12:30:29;6.10;;;1.67;;
15254;SDS011;7730;49.610;11.136;2023-09-18T12:32:58;5.50;;;1.70;;
15254;SDS011;7730;49.610;11.136;2023-09-18T12:35:25;5.68;;;1.50;;
15254;SDS011;7730;49.610;11.136;2023-09-18T12:37:54;7.90;;;1.67;;
15254;SDS011;7730;49.610;11.136;2023-09-18T12:40:24;6.00;;;1.80;;
15254;SDS011;7730;49.610;11.136;2023-09-18T12:42:51;8.52;;;1.80;;
15254;SDS011;7730;49.610;11.136;2023-09-18T12:45:19;6.95;;;2.13;;
15254;SDS011;7730;49.610;11.136;2023-09-18T12:47:46;8.07;;;2.05;;
15254;SDS011;7730;49.610;11.136;2023-09-18T12:50:14;8.50;;;2.00;;
15254;SDS011;7730;49.610;11.136;2023-09-18T12:52:41;6.05;;;1.95;;
15254;SDS011;7730;49.610;11.136;2023-09-18T12:55:08;4.78;;;1.70;;
15254;SDS011;7730;49.610;11.136;2023-09-18T12:57:39;6.95;;;2.00;;
15254;SDS011;7730;49.610;11.136;2023-09-18T13:00:09;6.32;;;1.80;;
15254;SDS011;7730;49.610;11.136;2023-09-18T13:02:38;6.53;;;1.88;;
15254;SDS011;7730;49.610;11.136;2023-09-18T13:05:06;8.85;;;1.90;;
15254;SDS011;7730;49.610;11.136;2023-09-18T13:07:42;7.35;;;1.92;;
15254;SDS011;7730;49.610;11.136;2023-09-18T13:10:10;5.68;;;1.88;;
15254;SDS011;7730;49.610;11.136;2023-09-18T13:12:40;6.68;;;2.30;;
15254;SDS011;7730;49.610;11.136;2023-09-18T13:15:08;9.60;;;2.58;;
15254;SDS011;7730;49.610;11.136;2023-09-18T13:17:37;8.65;;;2.22;;
15254;SDS011;7730;49.610;11.136;2023-09-18T13:20:11;10.00;;;2.78;;
15254;SDS011;7730;49.610;11.136;2023-09-18T13:22:39;8.75;;;2.60;;
15254;SDS011;7730;49.610;11.136;2023-09-18T13:25:07;11.00;;;3.13;;
15254;SDS011;7730;49.610;11.136;2023-09-18T13:27:34;8.48;;;2.40;;
15254;SDS011;7730;49.610;11.136;2023-09-18T13:30:02;6.95;;;2.35;;
15254;SDS011;7730;49.610;11.136;2023-09-18T13:32:32;4.35;;;1.73;;
15254;SDS011;7730;49.610;11.136;2023-09-18T13:34:59;6.63;;;1.90;;
15254;SDS011;7730;49.610;11.136;2023-09-18T13:37:26;6.30;;;1.60;;
15254;SDS011;7730;49.610;11.136;2023-09-18T13:39:54;5.57;;;1.77;;
15254;SDS011;7730;49.610;11.136;2023-09-18T13:42:21;6.63;;;1.80;;
15254;SDS011;7730;49.610;11.136;2023-09-18T13:44:48;6.55;;;2.00;;
15254;SDS011;7730;49.610;11.136;2023-09-18T13:47:16;8.88;;;1.77;;
15254;SDS011;7730;49.610;11.136;2023-09-18T13:49:43;5.97;;;1.90;;
15254;SDS011;7730;49.610;11.136;2023-09-18T13:52:11;4.85;;;1.67;;
15254;SDS011;7730;49.610;11.136;2023-09-18T13:54:39;5.55;;;1.70;;
15254;SDS011;7730;49.610;11.136;2023-09-18T13:57:06;4.15;;;1.50;;
15254;SDS011;7730;49.610;11.136;2023-09-18T13:59:33;5.55;;;1.70;;
15254;SDS011;7730;49.610;11.136;2023-09-18T14:02:00;5.50;;;1.80;;
15254;SDS011;7730;49.610;11.136;2023-09-18T14:04:29;6.60;;;1.52;;
15254;SDS011;7730;49.610;11.136;2023-09-18T14:06:57;6.00;;;1.60;;
15254;SDS011;7730;49.610;11.136;2023-09-18T14:09:24;3.95;;;1.60;;
15254;SDS011;7730;49.610;11.136;2023-09-18T14:11:53;6.13;;;1.70;;
15254;SDS011;7730;49.610;11.136;2023-09-18T14:14:21;6.28;;;1.83;;
15254;SDS011;7730;49.610;11.136;2023-09-18T14:16:49;6.38;;;1.70;;
15254;SDS011;7730;49.610;11.136;2023-09-18T14:19:16;6.30;;;1.70;;
15254;SDS011;7730;49.610;11.136;2023-09-18T14:21:44;5.43;;;1.73;;
15254;SDS011;7730;49.610;11.136;2023-09-18T14:24:14;6.75;;;1.73;;
15254;SDS011;7730;49.610;11.136;2023-09-18T14:26:43;4.00;;;1.50;;
15254;SDS011;7730;49.610;11.136;2023-09-18T14:29:11;7.47;;;1.85;;
15254;SDS011;7730;49.610;11.136;2023-09-18T14:31:39;5.57;;;1.77;;
15254;SDS011;7730;49.610;11.136;2023-09-18T14:34:07;5.22;;;1.42;;
15254;SDS011;7730;49.610;11.136;2023-09-18T14:36:35;5.50;;;1.60;;
15254;SDS011;7730;49.610;11.136;2023-09-18T14:39:05;3.70;;;1.50;;
15254;SDS011;7730;49.610;11.136;2023-09-18T14:41:34;5.15;;;1.50;;
15254;SDS011;7730;49.610;11.136;2023-09-18T14:44:02;5.38;;;1.80;;
15254;SDS011;7730;49.610;11.136;2023-09-18T14:46:29;3.85;;;1.65;;
15254;SDS011;7730;49.610;11.136;2023-09-18T14:48:58;4.15;;;1.50;;
15254;SDS011;7730;49.610;11.136;2023-09-18T14:51:25;3.33;;;1.38;;